createdAt,value
2023-05-22T00:00:30.676Z,61.16
2023-05-22T00:02:32.648Z,61.20
2023-05-22T00:04:34.880Z,60.65
2023-05-22T00:06:36.558Z,61.20
2023-05-22T00:08:38.414Z,61.41
2023-05-22T00:10:40.495Z,61.79
2023-05-22T00:12:42.583Z,61.75
2023-05-22T00:14:44.579Z,61.25
2023-05-22T00:16:47.980Z,61.81
2023-05-22T00:18:49.854Z,63.19
2023-05-22T00:20:51.815Z,63.02
2023-05-22T00:22:53.424Z,62.83
2023-05-22T00:24:54.996Z,62.47
2023-05-22T00:26:57.073Z,62.72
2023-05-22T00:28:58.920Z,62.69
2023-05-22T00:31:03.369Z,63.20
2023-05-22T00:33:07.786Z,63.55
2023-05-22T00:35:10.206Z,64.13
2023-05-22T00:37:12.288Z,63.57
2023-05-22T00:39:13.968Z,63.93
2023-05-22T00:41:15.873Z,63.73
2023-05-22T00:43:17.644Z,63.44
2023-05-22T00:45:19.466Z,64.37
2023-05-22T00:47:21.041Z,64.21
2023-05-22T00:49:24.109Z,64.37
2023-05-22T00:51:26.011Z,64.76
2023-05-22T00:53:29.090Z,64.87
2023-05-22T00:55:30.827Z,65.47
2023-05-22T00:57:33.399Z,65.97
2023-05-22T00:59:36.077Z,65.48
2023-05-22T01:01:38.499Z,65.99
2023-05-22T01:03:41.829Z,65.90
2023-05-22T01:05:45.117Z,65.66
2023-05-22T01:07:49.831Z,65.45
2023-05-22T01:09:51.621Z,65.96
2023-05-22T01:12:01.301Z,64.66
2023-05-22T01:14:13.321Z,65.27
2023-05-22T01:16:24.617Z,65.17
2023-05-22T01:18:34.952Z,65.42
2023-05-22T01:20:41.382Z,66.55
2023-05-22T01:23:19.206Z,64.69
2023-05-22T01:25:40.939Z,65.47
2023-05-22T01:28:12.095Z,65.12
2023-05-22T01:30:41.700Z,65.42
2023-05-22T01:32:46.900Z,68.24
2023-05-22T01:34:53.640Z,67.25
2023-05-22T01:36:57.603Z,68.69
2023-05-22T01:39:00.190Z,69.04
2023-05-22T01:41:02.060Z,69.55
2023-05-22T01:43:03.779Z,69.59
2023-05-22T01:45:08.696Z,69.35
2023-05-22T01:47:11.834Z,69.90
2023-05-22T01:49:13.758Z,70.03
2023-05-22T01:51:23.052Z,68.70
2023-05-22T01:53:30.896Z,67.93
2023-05-22T01:55:42.790Z,68.49
2023-05-22T01:57:52.930Z,67.59
2023-05-22T02:00:02.866Z,67.32
2023-05-22T02:02:07.110Z,68.62
2023-05-22T02:04:10.681Z,68.53
2023-05-22T02:06:14.829Z,69.11
2023-05-22T02:08:17.471Z,69.50
2023-05-22T02:10:21.763Z,68.53
2023-05-22T02:12:24.543Z,69.23
2023-05-22T02:14:26.502Z,69.55
2023-05-22T02:16:29.390Z,69.19
2023-05-22T02:18:30.968Z,69.29
2023-05-22T02:20:34.005Z,68.94
2023-05-22T02:22:36.101Z,68.68
2023-05-22T02:24:37.719Z,68.41
2023-05-22T02:26:39.370Z,68.46
2023-05-22T02:28:40.955Z,68.43
2023-05-22T02:30:43.014Z,68.83
2023-05-22T02:32:44.938Z,68.27
2023-05-22T02:34:46.534Z,68.32
2023-05-22T02:36:49.685Z,67.71
2023-05-22T02:38:51.232Z,67.55
2023-05-22T02:40:52.888Z,67.55
2023-05-22T02:42:55.044Z,67.66
2023-05-22T02:44:56.893Z,67.66
2023-05-22T02:46:59.051Z,67.08
2023-05-22T02:49:01.015Z,66.93
2023-05-22T02:51:03.009Z,67.06
2023-05-22T02:53:08.819Z,67.30
2023-05-22T02:55:10.803Z,67.01
2023-05-22T02:57:12.491Z,66.95
2023-05-22T02:59:14.298Z,66.55
2023-05-22T03:01:16.084Z,66.57
2023-05-22T03:03:17.974Z,67.26
2023-05-22T03:05:21.341Z,67.08
2023-05-22T03:07:23.187Z,67.61
2023-05-22T03:09:26.772Z,67.47
2023-05-22T03:11:28.462Z,67.92
2023-05-22T03:13:31.371Z,68.01
2023-05-22T03:15:33.539Z,67.73
2023-05-22T03:17:36.805Z,67.72
2023-05-22T03:19:38.676Z,67.41
2023-05-22T03:21:41.373Z,67.69
2023-05-22T03:23:44.685Z,67.92
2023-05-22T03:25:47.746Z,67.91
2023-05-22T03:27:49.433Z,67.86
2023-05-22T03:29:51.785Z,67.78
2023-05-22T03:31:54.655Z,67.59
2023-05-22T03:33:56.381Z,68.25
2023-05-22T03:35:58.013Z,68.01
2023-05-22T03:37:59.896Z,67.62
2023-05-22T03:40:01.773Z,68.11
2023-05-22T03:42:06.017Z,67.82
2023-05-22T03:44:08.017Z,67.92
2023-05-22T03:46:10.035Z,68.31
2023-05-22T03:48:11.938Z,68.26
2023-05-22T03:50:13.671Z,67.97
2023-05-22T03:52:15.778Z,67.88
2023-05-22T03:54:17.728Z,68.03
2023-05-22T03:56:19.359Z,67.88
2023-05-22T03:58:22.809Z,67.69
2023-05-22T04:02:26.486Z,68.02
2023-05-22T04:04:28.536Z,67.73
2023-05-22T04:06:30.473Z,68.18
2023-05-22T04:08:32.077Z,68.04
2023-05-22T04:10:35.380Z,67.75
2023-05-22T04:12:37.178Z,68.23
2023-05-22T04:14:40.308Z,67.91
2023-05-22T04:16:41.941Z,68.17
2023-05-22T04:18:43.687Z,68.07
2023-05-22T04:20:45.335Z,68.10
2023-05-22T04:22:47.026Z,67.93
2023-05-22T04:24:49.413Z,68.09
2023-05-22T04:26:52.636Z,67.84
2023-05-22T04:28:54.496Z,67.95
2023-05-22T04:30:57.825Z,68.00
2023-05-22T04:32:59.710Z,67.83
2023-05-22T04:35:01.899Z,67.37
2023-05-22T04:37:03.757Z,68.06
2023-05-22T04:39:05.355Z,67.64
2023-05-22T04:41:07.644Z,67.41
2023-05-22T04:43:09.237Z,67.26
2023-05-22T04:45:11.811Z,66.71
2023-05-22T04:47:14.783Z,66.88
2023-05-22T04:49:16.421Z,67.00
2023-05-22T04:51:18.492Z,66.37
2023-05-22T04:53:20.397Z,66.42
2023-05-22T04:55:22.083Z,66.70
2023-05-22T04:57:23.773Z,66.90
2023-05-22T04:59:25.391Z,66.01
2023-05-22T05:01:27.111Z,66.54
2023-05-22T05:03:30.333Z,66.09
2023-05-22T05:05:32.248Z,65.90
2023-05-22T05:07:37.679Z,66.12
2023-05-22T05:09:39.499Z,65.90
2023-05-22T05:11:41.045Z,65.75
2023-05-22T05:13:42.900Z,65.97
2023-05-22T05:15:44.828Z,65.01
2023-05-22T05:17:46.756Z,64.87
2023-05-22T05:19:49.959Z,64.79
2023-05-22T05:21:51.680Z,63.94
2023-05-22T05:23:53.302Z,63.81
2023-05-22T05:25:55.229Z,62.94
2023-05-22T05:27:57.139Z,63.48
2023-05-22T05:29:59.726Z,63.21
2023-05-22T05:32:01.343Z,62.64
2023-05-22T05:34:02.993Z,62.72
2023-05-22T05:36:06.729Z,62.83
2023-05-22T05:38:08.399Z,62.68
2023-05-22T05:40:10.716Z,61.65
2023-05-22T05:42:12.391Z,62.14
2023-05-22T05:44:14.212Z,62.67
2023-05-22T05:46:16.631Z,62.92
2023-05-22T05:48:18.476Z,62.74
2023-05-22T05:50:20.292Z,60.99
2023-05-22T05:52:23.269Z,60.57
2023-05-22T05:54:25.160Z,60.06
2023-05-22T05:56:26.832Z,60.00
2023-05-22T05:58:28.867Z,59.09
2023-05-22T06:00:31.001Z,58.37
2023-05-22T06:02:32.990Z,58.83
2023-05-22T06:04:34.790Z,58.83
2023-05-22T06:06:36.889Z,61.17
2023-05-22T06:08:40.186Z,60.72
2023-05-22T06:10:42.006Z,61.13
2023-05-22T06:12:44.066Z,61.22
2023-05-22T06:14:45.731Z,61.47
2023-05-22T06:16:47.634Z,61.50
2023-05-22T06:18:49.617Z,61.25
2023-05-22T06:20:52.830Z,60.85
2023-05-22T06:22:54.428Z,60.80
2023-05-22T06:24:57.402Z,60.85
2023-05-22T06:26:59.151Z,60.25
2023-05-22T06:29:00.704Z,59.68
2023-05-22T06:31:02.563Z,59.36
2023-05-22T06:33:04.312Z,59.82
2023-05-22T06:35:06.583Z,58.70
2023-05-22T06:37:08.716Z,58.04
2023-05-22T06:39:10.297Z,58.04
2023-05-22T06:41:13.611Z,57.23
2023-05-22T06:43:17.452Z,57.38
2023-05-22T06:45:20.043Z,56.90
2023-05-22T06:47:21.800Z,57.14
2023-05-22T06:49:23.849Z,56.97
2023-05-22T06:51:26.240Z,56.76
2023-05-22T06:53:28.210Z,53.29
2023-05-22T06:55:30.163Z,54.34
2023-05-22T06:57:33.428Z,55.54
2023-05-22T06:59:35.296Z,55.54
2023-05-22T07:01:37.053Z,55.22
2023-05-22T07:03:38.644Z,54.09
2023-05-22T07:05:40.462Z,53.79
2023-05-22T07:07:42.154Z,53.09
2023-05-22T07:09:43.990Z,53.01
2023-05-22T07:11:45.633Z,52.86
2023-05-22T07:13:48.593Z,53.09
2023-05-22T07:15:50.327Z,51.97
2023-05-22T07:17:51.950Z,51.58
2023-05-22T07:19:54.016Z,51.15
2023-05-22T07:21:55.802Z,50.83
2023-05-22T07:23:57.747Z,51.55
2023-05-22T07:25:59.606Z,50.97
2023-05-22T07:28:01.769Z,50.17
2023-05-22T07:30:06.310Z,50.14
2023-05-22T07:32:08.151Z,50.93
2023-05-22T07:34:10.118Z,50.11
2023-05-22T07:36:12.188Z,50.47
2023-05-22T07:38:13.806Z,49.38
2023-05-22T07:40:15.686Z,49.71
2023-05-22T07:42:17.742Z,48.87
2023-05-22T07:44:19.560Z,49.28
2023-05-22T07:46:22.768Z,49.29
2023-05-22T07:48:24.448Z,49.43
2023-05-22T07:50:26.239Z,48.99
2023-05-22T07:52:27.919Z,48.75
2023-05-22T07:54:29.963Z,48.87
2023-05-22T07:56:31.603Z,48.51
2023-05-22T07:58:33.488Z,48.57
2023-05-22T08:00:35.142Z,48.13
2023-05-22T08:02:38.363Z,47.59
2023-05-22T08:04:42.142Z,46.45
2023-05-22T08:06:44.392Z,46.91
2023-05-22T08:08:46.291Z,46.96
2023-05-22T08:11:03.033Z,46.67
2023-05-22T08:13:07.059Z,45.86
2023-05-22T08:15:09.648Z,45.65
2023-05-22T08:17:13.698Z,45.85
2023-05-22T08:19:16.916Z,45.86
2023-05-22T08:21:18.926Z,45.55
2023-05-22T08:23:20.576Z,45.11
2023-05-22T08:25:23.085Z,44.67
2023-05-22T08:27:24.986Z,44.36
2023-05-22T08:29:26.639Z,44.23
2023-05-22T08:31:28.540Z,44.64
2023-05-22T08:33:30.379Z,44.33
2023-05-22T08:35:33.468Z,44.35
2023-05-22T08:37:35.184Z,43.59
2023-05-22T08:39:36.790Z,43.51
2023-05-22T08:41:38.490Z,43.27
2023-05-22T08:43:41.884Z,43.98
2023-05-22T08:45:43.952Z,43.49
2023-05-22T08:47:52.275Z,44.53
2023-05-22T08:49:54.540Z,43.78
2023-05-22T08:52:05.885Z,44.30
2023-05-22T08:54:08.516Z,42.61
2023-05-22T08:56:10.930Z,42.85
2023-05-22T08:58:13.086Z,42.88
2023-05-22T09:00:16.715Z,42.60
2023-05-22T09:02:19.542Z,41.97
2023-05-22T09:04:21.754Z,41.82
2023-05-22T09:06:23.580Z,42.27
2023-05-22T09:08:28.207Z,42.40
2023-05-22T09:10:30.123Z,41.44
2023-05-22T09:12:33.697Z,42.14
2023-05-22T09:14:39.405Z,42.75
2023-05-22T09:16:46.060Z,42.93
2023-05-22T09:18:47.701Z,41.50
2023-05-22T09:20:50.739Z,41.75
2023-05-22T09:22:52.615Z,41.09
2023-05-22T09:24:56.541Z,40.95
2023-05-22T09:27:03.064Z,41.93
2023-05-22T09:29:05.705Z,41.14
2023-05-22T09:31:07.764Z,40.28
2023-05-22T09:33:12.636Z,41.48
2023-05-22T09:35:14.502Z,40.98
2023-05-22T09:37:17.477Z,40.59
2023-05-22T09:39:19.472Z,39.90
2023-05-22T09:41:22.559Z,40.30
2023-05-22T09:43:24.829Z,40.14
2023-05-22T09:45:28.157Z,39.18
2023-05-22T09:47:30.115Z,39.16
2023-05-22T09:49:35.776Z,39.11
2023-05-22T09:51:40.561Z,39.51
2023-05-22T09:53:44.159Z,38.46
2023-05-22T09:55:48.404Z,38.50
2023-05-22T09:57:52.524Z,38.65
2023-05-22T09:59:55.410Z,38.25
2023-05-22T10:01:58.383Z,38.24
2023-05-22T10:04:01.873Z,38.22
2023-05-22T10:06:05.917Z,38.00
2023-05-22T10:08:10.993Z,38.82
2023-05-22T10:10:15.402Z,37.38
2023-05-22T10:12:21.545Z,37.55
2023-05-22T10:14:25.812Z,37.83
2023-05-22T10:16:28.532Z,37.89
2023-05-22T10:18:30.633Z,37.78
2023-05-22T10:20:32.730Z,37.25
2023-05-22T10:22:36.894Z,37.12
2023-05-22T10:24:40.176Z,37.12
2023-05-22T10:26:44.282Z,36.55
2023-05-22T10:28:51.539Z,36.84
2023-05-22T10:31:01.295Z,37.88
2023-05-22T10:33:07.926Z,36.13
2023-05-22T10:35:18.472Z,37.74
2023-05-22T10:37:35.605Z,38.15
